sensor_id;sensor_type;location;lat;lon;timestamp;P1;durP1;ratioP1;P2;durP2;ratioP2
10882;SDS011;5494;51.796;10.952;2024-01-25T00:02:10;13.93;;;3.37;;
10882;SDS011;5494;51.796;10.952;2024-01-25T00:04:38;11.40;;;2.90;;
10882;SDS011;5494;51.796;10.952;2024-01-25T00:07:08;14.60;;;3.40;;
10882;SDS011;5494;51.796;10.952;2024-01-25T00:09:36;11.07;;;3.00;;
10882;SDS011;5494;51.796;10.952;2024-01-25T00:12:04;10.63;;;2.60;;
10882;SDS011;5494;51.796;10.952;2024-01-25T00:14:33;11.97;;;2.93;;
10882;SDS011;5494;51.796;10.952;2024-01-25T00:17:01;14.90;;;3.33;;
10882;SDS011;5494;51.796;10.952;2024-01-25T00:19:29;14.83;;;3.30;;
10882;SDS011;5494;51.796;10.952;2024-01-25T00:22:00;13.17;;;2.77;;
10882;SDS011;5494;51.796;10.952;2024-01-25T00:24:30;13.47;;;3.20;;
10882;SDS011;5494;51.796;10.952;2024-01-25T00:26:58;14.33;;;3.43;;
10882;SDS011;5494;51.796;10.952;2024-01-25T00:29:26;15.27;;;3.60;;
10882;SDS011;5494;51.796;10.952;2024-01-25T00:31:54;13.20;;;3.10;;
10882;SDS011;5494;51.796;10.952;2024-01-25T00:34:22;14.50;;;3.30;;
10882;SDS011;5494;51.796;10.952;2024-01-25T00:36:51;9.03;;;2.63;;
10882;SDS011;5494;51.796;10.952;2024-01-25T00:39:23;17.53;;;3.50;;
10882;SDS011;5494;51.796;10.952;2024-01-25T00:41:54;15.20;;;3.77;;
10882;SDS011;5494;51.796;10.952;2024-01-25T00:44:31;7.57;;;2.30;;
10882;SDS011;5494;51.796;10.952;2024-01-25T00:47:00;14.27;;;2.77;;
10882;SDS011;5494;51.796;10.952;2024-01-25T00:49:29;14.43;;;3.00;;
10882;SDS011;5494;51.796;10.952;2024-01-25T00:51:58;15.07;;;2.97;;
10882;SDS011;5494;51.796;10.952;2024-01-25T00:54:27;18.43;;;3.10;;
10882;SDS011;5494;51.796;10.952;2024-01-25T00:56:57;13.97;;;3.10;;
10882;SDS011;5494;51.796;10.952;2024-01-25T00:59:26;8.10;;;2.50;;
10882;SDS011;5494;51.796;10.952;2024-01-25T01:01:55;12.30;;;3.00;;
10882;SDS011;5494;51.796;10.952;2024-01-25T01:04:28;12.03;;;3.53;;
10882;SDS011;5494;51.796;10.952;2024-01-25T01:07:12;13.37;;;3.40;;
10882;SDS011;5494;51.796;10.952;2024-01-25T01:09:41;13.07;;;3.00;;
10882;SDS011;5494;51.796;10.952;2024-01-25T01:12:11;13.83;;;3.40;;
10882;SDS011;5494;51.796;10.952;2024-01-25T01:14:40;12.90;;;3.77;;
10882;SDS011;5494;51.796;10.952;2024-01-25T01:17:08;12.80;;;3.27;;
10882;SDS011;5494;51.796;10.952;2024-01-25T01:19:36;13.70;;;3.27;;
10882;SDS011;5494;51.796;10.952;2024-01-25T01:22:05;15.23;;;2.70;;
10882;SDS011;5494;51.796;10.952;2024-01-25T01:24:33;15.17;;;3.80;;
10882;SDS011;5494;51.796;10.952;2024-01-25T01:27:01;13.37;;;3.10;;
10882;SDS011;5494;51.796;10.952;2024-01-25T01:29:31;13.60;;;3.47;;
10882;SDS011;5494;51.796;10.952;2024-01-25T01:31:59;18.83;;;3.57;;
10882;SDS011;5494;51.796;10.952;2024-01-25T01:34:27;12.27;;;3.50;;
10882;SDS011;5494;51.796;10.952;2024-01-25T01:36:55;14.80;;;3.63;;
10882;SDS011;5494;51.796;10.952;2024-01-25T01:39:23;15.73;;;3.93;;
10882;SDS011;5494;51.796;10.952;2024-01-25T01:41:52;13.90;;;3.90;;
10882;SDS011;5494;51.796;10.952;2024-01-25T01:44:20;10.37;;;2.90;;
10882;SDS011;5494;51.796;10.952;2024-01-25T01:46:49;14.17;;;3.53;;
10882;SDS011;5494;51.796;10.952;2024-01-25T01:49:18;11.60;;;3.13;;
10882;SDS011;5494;51.796;10.952;2024-01-25T01:51:47;13.07;;;2.97;;
10882;SDS011;5494;51.796;10.952;2024-01-25T01:54:15;15.53;;;3.60;;
10882;SDS011;5494;51.796;10.952;2024-01-25T01:56:44;16.20;;;3.90;;
10882;SDS011;5494;51.796;10.952;2024-01-25T01:59:12;8.97;;;2.97;;
10882;SDS011;5494;51.796;10.952;2024-01-25T02:01:42;13.43;;;3.47;;
10882;SDS011;5494;51.796;10.952;2024-01-25T02:04:11;17.77;;;4.30;;
10882;SDS011;5494;51.796;10.952;2024-01-25T02:06:40;11.23;;;2.93;;
10882;SDS011;5494;51.796;10.952;2024-01-25T02:09:12;15.07;;;2.93;;
10882;SDS011;5494;51.796;10.952;2024-01-25T02:11:40;15.57;;;3.57;;
10882;SDS011;5494;51.796;10.952;2024-01-25T02:14:08;18.47;;;4.00;;
10882;SDS011;5494;51.796;10.952;2024-01-25T02:16:38;14.50;;;3.10;;
10882;SDS011;5494;51.796;10.952;2024-01-25T02:19:07;16.50;;;3.80;;
10882;SDS011;5494;51.796;10.952;2024-01-25T02:21:36;13.87;;;2.93;;
10882;SDS011;5494;51.796;10.952;2024-01-25T02:24:06;16.87;;;3.93;;
10882;SDS011;5494;51.796;10.952;2024-01-25T02:26:35;14.73;;;3.27;;
10882;SDS011;5494;51.796;10.952;2024-01-25T02:29:03;10.77;;;3.23;;
10882;SDS011;5494;51.796;10.952;2024-01-25T02:31:33;9.00;;;2.47;;
10882;SDS011;5494;51.796;10.952;2024-01-25T02:34:01;10.83;;;3.10;;
10882;SDS011;5494;51.796;10.952;2024-01-25T02:36:31;15.17;;;3.37;;
10882;SDS011;5494;51.796;10.952;2024-01-25T02:38:59;9.23;;;2.70;;
10882;SDS011;5494;51.796;10.952;2024-01-25T02:41:29;16.50;;;3.73;;
10882;SDS011;5494;51.796;10.952;2024-01-25T02:43:59;15.87;;;3.87;;
10882;SDS011;5494;51.796;10.952;2024-01-25T02:46:28;14.27;;;3.60;;
10882;SDS011;5494;51.796;10.952;2024-01-25T02:48:56;13.27;;;2.93;;
10882;SDS011;5494;51.796;10.952;2024-01-25T02:51:24;14.70;;;2.87;;
10882;SDS011;5494;51.796;10.952;2024-01-25T02:53:52;7.63;;;2.73;;
10882;SDS011;5494;51.796;10.952;2024-01-25T02:56:20;12.17;;;3.00;;
10882;SDS011;5494;51.796;10.952;2024-01-25T02:58:49;13.90;;;2.90;;
10882;SDS011;5494;51.796;10.952;2024-01-25T03:01:18;18.20;;;4.00;;
10882;SDS011;5494;51.796;10.952;2024-01-25T03:03:46;13.33;;;3.30;;
10882;SDS011;5494;51.796;10.952;2024-01-25T03:06:14;11.07;;;2.87;;
10882;SDS011;5494;51.796;10.952;2024-01-25T03:08:42;10.40;;;2.70;;
10882;SDS011;5494;51.796;10.952;2024-01-25T03:11:10;12.67;;;2.50;;
10882;SDS011;5494;51.796;10.952;2024-01-25T03:13:38;8.73;;;2.87;;
10882;SDS011;5494;51.796;10.952;2024-01-25T03:16:07;10.83;;;2.90;;
10882;SDS011;5494;51.796;10.952;2024-01-25T03:18:36;11.17;;;2.70;;
10882;SDS011;5494;51.796;10.952;2024-01-25T03:21:04;10.37;;;2.17;;
10882;SDS011;5494;51.796;10.952;2024-01-25T03:23:32;13.30;;;2.73;;
10882;SDS011;5494;51.796;10.952;2024-01-25T03:26:01;11.53;;;2.20;;
10882;SDS011;5494;51.796;10.952;2024-01-25T03:28:30;8.23;;;2.07;;
10882;SDS011;5494;51.796;10.952;2024-01-25T03:30:58;10.37;;;2.10;;
10882;SDS011;5494;51.796;10.952;2024-01-25T03:33:27;14.37;;;2.90;;
10882;SDS011;5494;51.796;10.952;2024-01-25T03:35:56;8.90;;;2.63;;
10882;SDS011;5494;51.796;10.952;2024-01-25T03:38:24;9.63;;;2.77;;
10882;SDS011;5494;51.796;10.952;2024-01-25T03:40:52;12.37;;;2.33;;
10882;SDS011;5494;51.796;10.952;2024-01-25T03:43:20;10.20;;;2.00;;
10882;SDS011;5494;51.796;10.952;2024-01-25T03:45:52;8.60;;;2.33;;
10882;SDS011;5494;51.796;10.952;2024-01-25T03:48:20;7.07;;;2.23;;
10882;SDS011;5494;51.796;10.952;2024-01-25T03:50:53;11.67;;;2.57;;
10882;SDS011;5494;51.796;10.952;2024-01-25T03:53:22;9.37;;;2.10;;
10882;SDS011;5494;51.796;10.952;2024-01-25T03:55:51;7.13;;;1.97;;
10882;SDS011;5494;51.796;10.952;2024-01-25T03:58:18;8.30;;;1.90;;
10882;SDS011;5494;51.796;10.952;2024-01-25T04:00:47;9.27;;;2.60;;
10882;SDS011;5494;51.796;10.952;2024-01-25T04:03:15;9.70;;;2.37;;
10882;SDS011;5494;51.796;10.952;2024-01-25T04:05:44;10.30;;;2.67;;
10882;SDS011;5494;51.796;10.952;2024-01-25T04:08:14;9.67;;;2.47;;
10882;SDS011;5494;51.796;10.952;2024-01-25T04:10:43;9.70;;;2.97;;
10882;SDS011;5494;51.796;10.952;2024-01-25T04:13:11;12.23;;;2.23;;
10882;SDS011;5494;51.796;10.952;2024-01-25T04:15:39;15.87;;;3.10;;
10882;SDS011;5494;51.796;10.952;2024-01-25T04:18:07;9.80;;;2.43;;
10882;SDS011;5494;51.796;10.952;2024-01-25T04:20:35;19.37;;;2.93;;
10882;SDS011;5494;51.796;10.952;2024-01-25T04:23:03;6.50;;;2.17;;
10882;SDS011;5494;51.796;10.952;2024-01-25T04:25:33;9.80;;;2.27;;
10882;SDS011;5494;51.796;10.952;2024-01-25T04:28:01;7.93;;;2.20;;
10882;SDS011;5494;51.796;10.952;2024-01-25T04:30:30;15.00;;;3.33;;
10882;SDS011;5494;51.796;10.952;2024-01-25T04:32:59;13.87;;;2.70;;
10882;SDS011;5494;51.796;10.952;2024-01-25T04:35:27;7.20;;;2.50;;
10882;SDS011;5494;51.796;10.952;2024-01-25T04:37:56;8.13;;;1.90;;
10882;SDS011;5494;51.796;10.952;2024-01-25T04:40:24;11.90;;;2.47;;
10882;SDS011;5494;51.796;10.952;2024-01-25T04:42:54;10.53;;;2.30;;
10882;SDS011;5494;51.796;10.952;2024-01-25T04:45:22;10.63;;;2.03;;
10882;SDS011;5494;51.796;10.952;2024-01-25T04:47:50;10.57;;;2.67;;
10882;SDS011;5494;51.796;10.952;2024-01-25T04:50:18;12.97;;;3.23;;
10882;SDS011;5494;51.796;10.952;2024-01-25T04:52:46;9.43;;;2.10;;
10882;SDS011;5494;51.796;10.952;2024-01-25T04:55:15;12.93;;;2.97;;
10882;SDS011;5494;51.796;10.952;2024-01-25T04:57:44;7.30;;;2.37;;
10882;SDS011;5494;51.796;10.952;2024-01-25T05:00:16;10.03;;;2.40;;
10882;SDS011;5494;51.796;10.952;2024-01-25T05:02:45;8.60;;;2.23;;
10882;SDS011;5494;51.796;10.952;2024-01-25T05:05:13;9.43;;;2.33;;
10882;SDS011;5494;51.796;10.952;2024-01-25T05:07:41;10.27;;;2.63;;
10882;SDS011;5494;51.796;10.952;2024-01-25T05:10:10;11.60;;;2.57;;
10882;SDS011;5494;51.796;10.952;2024-01-25T05:12:38;13.03;;;2.50;;
10882;SDS011;5494;51.796;10.952;2024-01-25T05:15:06;6.67;;;2.07;;
10882;SDS011;5494;51.796;10.952;2024-01-25T05:17:36;11.43;;;2.70;;
10882;SDS011;5494;51.796;10.952;2024-01-25T05:20:05;7.90;;;1.90;;
10882;SDS011;5494;51.796;10.952;2024-01-25T05:22:35;9.63;;;2.40;;
10882;SDS011;5494;51.796;10.952;2024-01-25T05:25:06;8.07;;;2.10;;
10882;SDS011;5494;51.796;10.952;2024-01-25T05:27:36;9.23;;;1.90;;
10882;SDS011;5494;51.796;10.952;2024-01-25T05:30:05;11.77;;;2.53;;
10882;SDS011;5494;51.796;10.952;2024-01-25T05:32:36;11.70;;;2.13;;
10882;SDS011;5494;51.796;10.952;2024-01-25T05:35:07;10.37;;;2.20;;
10882;SDS011;5494;51.796;10.952;2024-01-25T05:37:35;10.97;;;2.10;;
10882;SDS011;5494;51.796;10.952;2024-01-25T05:40:04;10.73;;;2.27;;
10882;SDS011;5494;51.796;10.952;2024-01-25T05:42:33;10.03;;;3.00;;
10882;SDS011;5494;51.796;10.952;2024-01-25T05:45:01;6.37;;;1.77;;
10882;SDS011;5494;51.796;10.952;2024-01-25T05:47:30;10.40;;;2.73;;
10882;SDS011;5494;51.796;10.952;2024-01-25T05:50:02;13.37;;;3.13;;
10882;SDS011;5494;51.796;10.952;2024-01-25T05:52:31;10.03;;;2.17;;
10882;SDS011;5494;51.796;10.952;2024-01-25T05:55:00;13.17;;;2.27;;
10882;SDS011;5494;51.796;10.952;2024-01-25T05:57:30;6.83;;;2.30;;
10882;SDS011;5494;51.796;10.952;2024-01-25T05:59:59;14.43;;;3.00;;
10882;SDS011;5494;51.796;10.952;2024-01-25T06:02:27;13.43;;;2.70;;
10882;SDS011;5494;51.796;10.952;2024-01-25T06:04:55;15.90;;;2.87;;
10882;SDS011;5494;51.796;10.952;2024-01-25T06:07:26;12.97;;;3.33;;
10882;SDS011;5494;51.796;10.952;2024-01-25T06:09:54;11.57;;;2.77;;
10882;SDS011;5494;51.796;10.952;2024-01-25T06:12:22;13.00;;;3.00;;
10882;SDS011;5494;51.796;10.952;2024-01-25T06:14:50;11.93;;;2.83;;
10882;SDS011;5494;51.796;10.952;2024-01-25T06:17:19;9.57;;;2.30;;
10882;SDS011;5494;51.796;10.952;2024-01-25T06:19:47;13.77;;;4.70;;
10882;SDS011;5494;51.796;10.952;2024-01-25T06:22:14;9.53;;;3.70;;
10882;SDS011;5494;51.796;10.952;2024-01-25T06:24:44;14.40;;;3.23;;
10882;SDS011;5494;51.796;10.952;2024-01-25T06:27:12;13.53;;;2.53;;
10882;SDS011;5494;51.796;10.952;2024-01-25T06:29:41;9.30;;;2.43;;
10882;SDS011;5494;51.796;10.952;2024-01-25T06:32:09;9.13;;;2.90;;
10882;SDS011;5494;51.796;10.952;2024-01-25T06:34:47;11.70;;;2.70;;
10882;SDS011;5494;51.796;10.952;2024-01-25T06:37:16;13.73;;;3.17;;
10882;SDS011;5494;51.796;10.952;2024-01-25T06:39:46;9.37;;;2.63;;
10882;SDS011;5494;51.796;10.952;2024-01-25T06:42:15;8.47;;;2.27;;
10882;SDS011;5494;51.796;10.952;2024-01-25T06:44:44;9.63;;;2.73;;
10882;SDS011;5494;51.796;10.952;2024-01-25T06:47:12;13.43;;;2.93;;
10882;SDS011;5494;51.796;10.952;2024-01-25T06:49:40;10.50;;;3.17;;
10882;SDS011;5494;51.796;10.952;2024-01-25T06:52:08;16.00;;;2.77;;
10882;SDS011;5494;51.796;10.952;2024-01-25T06:54:36;13.53;;;2.37;;
10882;SDS011;5494;51.796;10.952;2024-01-25T06:57:06;9.53;;;2.50;;
10882;SDS011;5494;51.796;10.952;2024-01-25T06:59:33;14.67;;;2.73;;
10882;SDS011;5494;51.796;10.952;2024-01-25T07:02:02;12.17;;;2.30;;
10882;SDS011;5494;51.796;10.952;2024-01-25T07:04:31;14.87;;;3.30;;
10882;SDS011;5494;51.796;10.952;2024-01-25T07:07:00;8.80;;;2.47;;
10882;SDS011;5494;51.796;10.952;2024-01-25T07:09:28;10.57;;;2.40;;
10882;SDS011;5494;51.796;10.952;2024-01-25T07:11:57;13.60;;;2.80;;
10882;SDS011;5494;51.796;10.952;2024-01-25T07:14:27;9.03;;;2.90;;
10882;SDS011;5494;51.796;10.952;2024-01-25T07:16:55;10.57;;;2.83;;
10882;SDS011;5494;51.796;10.952;2024-01-25T07:19:22;9.07;;;2.47;;
10882;SDS011;5494;51.796;10.952;2024-01-25T07:21:51;10.63;;;2.50;;
10882;SDS011;5494;51.796;10.952;2024-01-25T07:24:20;12.57;;;3.37;;
10882;SDS011;5494;51.796;10.952;2024-01-25T07:26:48;12.17;;;2.87;;
10882;SDS011;5494;51.796;10.952;2024-01-25T07:29:15;8.03;;;3.03;;
10882;SDS011;5494;51.796;10.952;2024-01-25T07:31:45;8.47;;;2.73;;
10882;SDS011;5494;51.796;10.952;2024-01-25T07:34:13;11.30;;;2.70;;
10882;SDS011;5494;51.796;10.952;2024-01-25T07:36:41;10.57;;;2.20;;
10882;SDS011;5494;51.796;10.952;2024-01-25T07:39:10;10.27;;;2.13;;
10882;SDS011;5494;51.796;10.952;2024-01-25T07:41:38;9.63;;;2.43;;
10882;SDS011;5494;51.796;10.952;2024-01-25T07:44:06;17.03;;;2.90;;
10882;SDS011;5494;51.796;10.952;2024-01-25T07:46:35;15.67;;;3.37;;
10882;SDS011;5494;51.796;10.952;2024-01-25T07:49:04;12.07;;;2.53;;
10882;SDS011;5494;51.796;10.952;2024-01-25T07:51:33;9.67;;;2.33;;
10882;SDS011;5494;51.796;10.952;2024-01-25T07:54:01;11.67;;;3.07;;
10882;SDS011;5494;51.796;10.952;2024-01-25T07:56:29;12.73;;;2.50;;
10882;SDS011;5494;51.796;10.952;2024-01-25T07:58:57;10.90;;;2.17;;
10882;SDS011;5494;51.796;10.952;2024-01-25T08:01:26;12.80;;;2.97;;
10882;SDS011;5494;51.796;10.952;2024-01-25T08:03:54;7.77;;;2.87;;
10882;SDS011;5494;51.796;10.952;2024-01-25T08:06:24;11.57;;;3.80;;
10882;SDS011;5494;51.796;10.952;2024-01-25T08:08:52;11.27;;;4.73;;
10882;SDS011;5494;51.796;10.952;2024-01-25T08:11:20;11.47;;;3.70;;
10882;SDS011;5494;51.796;10.952;2024-01-25T08:13:49;11.97;;;2.80;;
10882;SDS011;5494;51.796;10.952;2024-01-25T08:16:17;10.70;;;3.30;;
10882;SDS011;5494;51.796;10.952;2024-01-25T08:18:47;11.47;;;2.30;;
10882;SDS011;5494;51.796;10.952;2024-01-25T08:21:16;10.30;;;3.13;;
10882;SDS011;5494;51.796;10.952;2024-01-25T08:23:46;10.77;;;3.63;;
10882;SDS011;5494;51.796;10.952;2024-01-25T08:26:14;12.50;;;2.10;;
10882;SDS011;5494;51.796;10.952;2024-01-25T08:28:42;11.47;;;3.00;;
10882;SDS011;5494;51.796;10.952;2024-01-25T08:31:11;6.73;;;1.47;;
10882;SDS011;5494;51.796;10.952;2024-01-25T08:33:39;9.70;;;1.83;;
10882;SDS011;5494;51.796;10.952;2024-01-25T08:36:12;9.17;;;2.07;;
10882;SDS011;5494;51.796;10.952;2024-01-25T08:38:40;10.30;;;2.37;;
10882;SDS011;5494;51.796;10.952;2024-01-25T08:41:09;5.73;;;2.50;;
10882;SDS011;5494;51.796;10.952;2024-01-25T08:43:37;13.53;;;3.23;;
10882;SDS011;5494;51.796;10.952;2024-01-25T08:46:06;11.40;;;3.10;;
10882;SDS011;5494;51.796;10.952;2024-01-25T08:48:36;14.17;;;3.20;;
10882;SDS011;5494;51.796;10.952;2024-01-25T08:51:04;8.63;;;2.47;;
10882;SDS011;5494;51.796;10.952;2024-01-25T08:53:32;9.73;;;2.80;;
10882;SDS011;5494;51.796;10.952;2024-01-25T08:56:01;8.33;;;2.10;;
10882;SDS011;5494;51.796;10.952;2024-01-25T08:58:32;6.63;;;2.07;;
10882;SDS011;5494;51.796;10.952;2024-01-25T09:01:01;11.53;;;1.93;;
10882;SDS011;5494;51.796;10.952;2024-01-25T09:03:29;9.10;;;2.07;;
10882;SDS011;5494;51.796;10.952;2024-01-25T09:05:58;11.30;;;2.10;;
10882;SDS011;5494;51.796;10.952;2024-01-25T09:08:32;7.93;;;2.03;;
10882;SDS011;5494;51.796;10.952;2024-01-25T09:11:01;8.60;;;2.50;;
10882;SDS011;5494;51.796;10.952;2024-01-25T09:13:29;12.87;;;2.00;;
10882;SDS011;5494;51.796;10.952;2024-01-25T09:16:00;7.10;;;2.70;;
10882;SDS011;5494;51.796;10.952;2024-01-25T09:18:28;7.07;;;2.00;;
10882;SDS011;5494;51.796;10.952;2024-01-25T09:20:56;5.80;;;2.17;;
10882;SDS011;5494;51.796;10.952;2024-01-25T09:23:25;6.10;;;2.20;;
10882;SDS011;5494;51.796;10.952;2024-01-25T09:25:52;7.63;;;2.30;;
10882;SDS011;5494;51.796;10.952;2024-01-25T09:28:20;5.97;;;2.63;;
10882;SDS011;5494;51.796;10.952;2024-01-25T09:30:49;6.50;;;2.50;;
10882;SDS011;5494;51.796;10.952;2024-01-25T09:33:19;10.27;;;2.30;;
10882;SDS011;5494;51.796;10.952;2024-01-25T09:35:47;7.00;;;2.27;;
10882;SDS011;5494;51.796;10.952;2024-01-25T09:38:17;6.43;;;2.20;;
10882;SDS011;5494;51.796;10.952;2024-01-25T09:40:45;8.20;;;1.80;;
10882;SDS011;5494;51.796;10.952;2024-01-25T09:43:15;10.80;;;2.43;;
10882;SDS011;5494;51.796;10.952;2024-01-25T09:45:44;7.37;;;2.03;;
10882;SDS011;5494;51.796;10.952;2024-01-25T09:48:13;6.87;;;2.17;;
10882;SDS011;5494;51.796;10.952;2024-01-25T09:50:43;8.23;;;2.10;;
10882;SDS011;5494;51.796;10.952;2024-01-25T09:53:16;6.97;;;2.30;;
10882;SDS011;5494;51.796;10.952;2024-01-25T09:55:53;7.37;;;2.33;;
10882;SDS011;5494;51.796;10.952;2024-01-25T09:58:34;9.93;;;2.43;;
10882;SDS011;5494;51.796;10.952;2024-01-25T10:01:09;7.67;;;1.70;;
10882;SDS011;5494;51.796;10.952;2024-01-25T10:03:41;6.67;;;2.00;;
10882;SDS011;5494;51.796;10.952;2024-01-25T10:06:12;7.63;;;1.90;;
10882;SDS011;5494;51.796;10.952;2024-01-25T10:08:42;7.00;;;1.83;;
10882;SDS011;5494;51.796;10.952;2024-01-25T10:11:11;7.63;;;2.13;;
10882;SDS011;5494;51.796;10.952;2024-01-25T10:13:40;9.20;;;1.90;;
10882;SDS011;5494;51.796;10.952;2024-01-25T10:16:10;8.40;;;2.30;;
10882;SDS011;5494;51.796;10.952;2024-01-25T10:18:41;8.70;;;2.13;;
10882;SDS011;5494;51.796;10.952;2024-01-25T10:21:13;6.07;;;1.90;;
10882;SDS011;5494;51.796;10.952;2024-01-25T10:23:43;7.07;;;1.80;;
10882;SDS011;5494;51.796;10.952;2024-01-25T10:26:14;5.03;;;2.00;;
10882;SDS011;5494;51.796;10.952;2024-01-25T10:28:49;6.93;;;1.60;;
10882;SDS011;5494;51.796;10.952;2024-01-25T10:31:28;5.87;;;1.70;;
10882;SDS011;5494;51.796;10.952;2024-01-25T10:33:59;8.83;;;2.17;;
10882;SDS011;5494;51.796;10.952;2024-01-25T10:36:29;7.10;;;1.80;;
10882;SDS011;5494;51.796;10.952;2024-01-25T10:38:59;7.50;;;2.13;;
10882;SDS011;5494;51.796;10.952;2024-01-25T10:41:32;7.03;;;1.67;;
10882;SDS011;5494;51.796;10.952;2024-01-25T10:44:01;9.37;;;2.47;;
10882;SDS011;5494;51.796;10.952;2024-01-25T10:46:36;6.57;;;1.67;;
10882;SDS011;5494;51.796;10.952;2024-01-25T10:49:06;4.70;;;1.43;;
10882;SDS011;5494;51.796;10.952;2024-01-25T10:51:37;6.73;;;1.87;;
10882;SDS011;5494;51.796;10.952;2024-01-25T10:54:07;7.33;;;2.33;;
10882;SDS011;5494;51.796;10.952;2024-01-25T10:56:36;7.87;;;1.43;;
10882;SDS011;5494;51.796;10.952;2024-01-25T10:59:08;5.20;;;2.03;;
10882;SDS011;5494;51.796;10.952;2024-01-25T11:01:37;10.07;;;2.13;;
10882;SDS011;5494;51.796;10.952;2024-01-25T11:04:11;8.20;;;1.90;;
10882;SDS011;5494;51.796;10.952;2024-01-25T11:06:42;8.03;;;2.30;;
10882;SDS011;5494;51.796;10.952;2024-01-25T11:09:16;8.80;;;2.03;;
10882;SDS011;5494;51.796;10.952;2024-01-25T11:11:48;8.03;;;1.73;;
10882;SDS011;5494;51.796;10.952;2024-01-25T11:14:19;6.13;;;1.70;;
10882;SDS011;5494;51.796;10.952;2024-01-25T11:16:47;7.23;;;2.67;;
10882;SDS011;5494;51.796;10.952;2024-01-25T11:19:16;5.13;;;1.80;;
10882;SDS011;5494;51.796;10.952;2024-01-25T11:21:47;6.73;;;2.30;;
10882;SDS011;5494;51.796;10.952;2024-01-25T11:24:19;4.93;;;1.87;;
10882;SDS011;5494;51.796;10.952;2024-01-25T11:26:49;9.23;;;1.83;;
10882;SDS011;5494;51.796;10.952;2024-01-25T11:29:21;7.87;;;2.40;;
10882;SDS011;5494;51.796;10.952;2024-01-25T11:31:50;5.63;;;1.70;;
10882;SDS011;5494;51.796;10.952;2024-01-25T11:34:19;7.17;;;2.07;;
10882;SDS011;5494;51.796;10.952;2024-01-25T11:36:50;9.97;;;2.20;;
10882;SDS011;5494;51.796;10.952;2024-01-25T11:39:18;10.23;;;2.43;;
10882;SDS011;5494;51.796;10.952;2024-01-25T11:41:46;7.67;;;2.10;;
10882;SDS011;5494;51.796;10.952;2024-01-25T11:44:15;6.30;;;2.40;;
10882;SDS011;5494;51.796;10.952;2024-01-25T11:46:43;6.60;;;2.20;;
10882;SDS011;5494;51.796;10.952;2024-01-25T11:49:11;9.60;;;2.50;;
10882;SDS011;5494;51.796;10.952;2024-01-25T11:51:39;7.20;;;1.83;;
10882;SDS011;5494;51.796;10.952;2024-01-25T11:54:10;6.63;;;1.97;;
10882;SDS011;5494;51.796;10.952;2024-01-25T11:56:39;7.73;;;2.03;;
10882;SDS011;5494;51.796;10.952;2024-01-25T11:59:08;8.07;;;1.90;;
10882;SDS011;5494;51.796;10.952;2024-01-25T12:01:38;7.87;;;1.90;;
10882;SDS011;5494;51.796;10.952;2024-01-25T12:04:08;6.07;;;1.73;;
10882;SDS011;5494;51.796;10.952;2024-01-25T12:06:37;4.30;;;1.80;;
10882;SDS011;5494;51.796;10.952;2024-01-25T12:09:07;7.07;;;1.73;;
10882;SDS011;5494;51.796;10.952;2024-01-25T12:11:38;9.27;;;2.40;;
10882;SDS011;5494;51.796;10.952;2024-01-25T12:14:08;8.50;;;2.87;;
10882;SDS011;5494;51.796;10.952;2024-01-25T12:16:37;3.67;;;1.40;;
10882;SDS011;5494;51.796;10.952;2024-01-25T12:19:05;6.80;;;2.47;;
10882;SDS011;5494;51.796;10.952;2024-01-25T12:21:35;10.20;;;2.20;;
10882;SDS011;5494;51.796;10.952;2024-01-25T12:24:04;9.13;;;2.30;;
10882;SDS011;5494;51.796;10.952;2024-01-25T12:26:37;7.37;;;2.20;;
10882;SDS011;5494;51.796;10.952;2024-01-25T12:29:06;5.27;;;2.10;;
10882;SDS011;5494;51.796;10.952;2024-01-25T12:31:34;4.70;;;1.50;;
10882;SDS011;5494;51.796;10.952;2024-01-25T12:34:02;9.40;;;2.40;;
10882;SDS011;5494;51.796;10.952;2024-01-25T12:36:31;8.60;;;2.10;;
10882;SDS011;5494;51.796;10.952;2024-01-25T12:39:00;8.57;;;2.03;;
10882;SDS011;5494;51.796;10.952;2024-01-25T12:41:29;9.00;;;2.33;;
10882;SDS011;5494;51.796;10.952;2024-01-25T12:43:59;9.47;;;2.10;;
10882;SDS011;5494;51.796;10.952;2024-01-25T12:46:28;6.43;;;1.80;;
10882;SDS011;5494;51.796;10.952;2024-01-25T12:48:56;5.70;;;2.13;;
10882;SDS011;5494;51.796;10.952;2024-01-25T12:51:25;4.00;;;1.43;;
10882;SDS011;5494;51.796;10.952;2024-01-25T12:53:54;6.97;;;1.63;;
10882;SDS011;5494;51.796;10.952;2024-01-25T12:56:22;7.60;;;1.70;;
10882;SDS011;5494;51.796;10.952;2024-01-25T12:58:50;5.37;;;1.67;;
10882;SDS011;5494;51.796;10.952;2024-01-25T13:01:20;7.57;;;1.73;;
10882;SDS011;5494;51.796;10.952;2024-01-25T13:03:48;7.70;;;2.07;;
10882;SDS011;5494;51.796;10.952;2024-01-25T13:06:16;9.07;;;1.77;;
10882;SDS011;5494;51.796;10.952;2024-01-25T13:08:45;4.37;;;1.67;;
10882;SDS011;5494;51.796;10.952;2024-01-25T13:11:13;5.00;;;1.50;;
10882;SDS011;5494;51.796;10.952;2024-01-25T13:13:41;5.23;;;1.47;;
10882;SDS011;5494;51.796;10.952;2024-01-25T13:16:11;5.73;;;1.90;;
10882;SDS011;5494;51.796;10.952;2024-01-25T13:18:41;6.90;;;1.73;;
10882;SDS011;5494;51.796;10.952;2024-01-25T13:21:09;6.93;;;1.80;;
10882;SDS011;5494;51.796;10.952;2024-01-25T13:23:37;5.73;;;2.20;;
10882;SDS011;5494;51.796;10.952;2024-01-25T13:26:05;9.60;;;1.97;;
10882;SDS011;5494;51.796;10.952;2024-01-25T13:28:33;4.33;;;1.63;;
10882;SDS011;5494;51.796;10.952;2024-01-25T13:31:01;10.40;;;3.40;;
10882;SDS011;5494;51.796;10.952;2024-01-25T13:33:29;5.30;;;1.53;;
10882;SDS011;5494;51.796;10.952;2024-01-25T13:35:59;5.30;;;1.67;;
10882;SDS011;5494;51.796;10.952;2024-01-25T13:38:27;6.87;;;1.60;;
10882;SDS011;5494;51.796;10.952;2024-01-25T13:40:55;8.27;;;2.00;;
10882;SDS011;5494;51.796;10.952;2024-01-25T13:43:23;11.63;;;3.27;;
10882;SDS011;5494;51.796;10.952;2024-01-25T13:45:51;3.57;;;1.67;;
10882;SDS011;5494;51.796;10.952;2024-01-25T13:48:20;7.60;;;1.63;;
10882;SDS011;5494;51.796;10.952;2024-01-25T13:50:48;8.43;;;2.10;;
10882;SDS011;5494;51.796;10.952;2024-01-25T13:53:17;8.27;;;2.00;;
10882;SDS011;5494;51.796;10.952;2024-01-25T13:55:45;6.17;;;2.27;;
10882;SDS011;5494;51.796;10.952;2024-01-25T13:58:13;6.20;;;1.83;;
10882;SDS011;5494;51.796;10.952;2024-01-25T14:00:41;5.87;;;1.27;;
10882;SDS011;5494;51.796;10.952;2024-01-25T14:03:10;8.37;;;1.90;;
10882;SDS011;5494;51.796;10.952;2024-01-25T14:05:38;8.17;;;1.93;;
10882;SDS011;5494;51.796;10.952;2024-01-25T14:08:06;5.70;;;1.63;;
10882;SDS011;5494;51.796;10.952;2024-01-25T14:10:36;4.97;;;1.30;;
10882;SDS011;5494;51.796;10.952;2024-01-25T14:13:05;2.63;;;1.20;;
10882;SDS011;5494;51.796;10.952;2024-01-25T14:15:34;6.83;;;1.57;;
10882;SDS011;5494;51.796;10.952;2024-01-25T14:18:03;9.10;;;1.90;;
10882;SDS011;5494;51.796;10.952;2024-01-25T14:20:31;7.97;;;2.07;;
10882;SDS011;5494;51.796;10.952;2024-01-25T14:23:00;5.13;;;1.77;;
10882;SDS011;5494;51.796;10.952;2024-01-25T14:25:29;7.47;;;2.27;;
10882;SDS011;5494;51.796;10.952;2024-01-25T14:27:58;3.20;;;1.23;;
10882;SDS011;5494;51.796;10.952;2024-01-25T14:30:29;3.83;;;1.77;;
10882;SDS011;5494;51.796;10.952;2024-01-25T14:32:57;7.00;;;3.10;;
10882;SDS011;5494;51.796;10.952;2024-01-25T14:35:25;5.00;;;1.57;;
10882;SDS011;5494;51.796;10.952;2024-01-25T14:37:55;9.10;;;2.20;;
10882;SDS011;5494;51.796;10.952;2024-01-25T14:40:25;6.13;;;1.37;;
10882;SDS011;5494;51.796;10.952;2024-01-25T14:43:14;5.60;;;2.23;;
10882;SDS011;5494;51.796;10.952;2024-01-25T14:45:42;7.03;;;1.43;;
10882;SDS011;5494;51.796;10.952;2024-01-25T14:48:10;4.90;;;1.93;;
10882;SDS011;5494;51.796;10.952;2024-01-25T14:50:39;5.67;;;1.67;;
10882;SDS011;5494;51.796;10.952;2024-01-25T14:53:07;6.50;;;1.70;;